sensor_id;sensor_type;location;lat;lon;timestamp;temperature;humidity
20492;DHT22;10404;51.468;6.762;2024-01-15T00:00:42;0.10;85.40
20492;DHT22;10404;51.468;6.762;2024-01-15T00:03:08;0.00;85.30
20492;DHT22;10404;51.468;6.762;2024-01-15T00:05:35;0.00;85.40
20492;DHT22;10404;51.468;6.762;2024-01-15T00:08:00;0.00;85.50
20492;DHT22;10404;51.468;6.762;2024-01-15T00:10:26;0.00;85.50
20492;DHT22;10404;51.468;6.762;2024-01-15T00:12:51;0.00;85.50
20492;DHT22;10404;51.468;6.762;2024-01-15T00:15:17;0.00;85.50
20492;DHT22;10404;51.468;6.762;2024-01-15T00:17:42;0.00;85.50
20492;DHT22;10404;51.468;6.762;2024-01-15T00:20:08;0.00;85.50
20492;DHT22;10404;51.468;6.762;2024-01-15T00:22:34;0.00;85.50
20492;DHT22;10404;51.468;6.762;2024-01-15T00:25:01;0.00;85.50
20492;DHT22;10404;51.468;6.762;2024-01-15T00:27:27;0.00;85.50
20492;DHT22;10404;51.468;6.762;2024-01-15T00:29:52;0.00;85.50
20492;DHT22;10404;51.468;6.762;2024-01-15T00:32:19;0.00;85.50
20492;DHT22;10404;51.468;6.762;2024-01-15T00:34:45;0.00;85.40
20492;DHT22;10404;51.468;6.762;2024-01-15T00:37:11;0.00;85.40
20492;DHT22;10404;51.468;6.762;2024-01-15T00:39:36;0.00;85.60
20492;DHT22;10404;51.468;6.762;2024-01-15T00:42:02;0.00;85.50
20492;DHT22;10404;51.468;6.762;2024-01-15T00:44:28;0.00;85.40
20492;DHT22;10404;51.468;6.762;2024-01-15T00:46:54;0.00;85.50
20492;DHT22;10404;51.468;6.762;2024-01-15T00:49:19;0.00;85.50
20492;DHT22;10404;51.468;6.762;2024-01-15T00:51:45;0.00;85.40
20492;DHT22;10404;51.468;6.762;2024-01-15T00:54:10;0.00;85.50
20492;DHT22;10404;51.468;6.762;2024-01-15T00:56:37;0.00;85.40
20492;DHT22;10404;51.468;6.762;2024-01-15T00:59:02;0.00;85.40
20492;DHT22;10404;51.468;6.762;2024-01-15T01:01:28;0.00;85.50
20492;DHT22;10404;51.468;6.762;2024-01-15T01:03:54;0.00;85.50
20492;DHT22;10404;51.468;6.762;2024-01-15T01:06:19;0.00;85.50
20492;DHT22;10404;51.468;6.762;2024-01-15T01:08:45;0.00;85.40
20492;DHT22;10404;51.468;6.762;2024-01-15T01:11:14;0.00;85.60
20492;DHT22;10404;51.468;6.762;2024-01-15T01:13:40;0.00;85.60
20492;DHT22;10404;51.468;6.762;2024-01-15T01:16:05;0.00;85.60
20492;DHT22;10404;51.468;6.762;2024-01-15T01:18:31;0.00;85.70
20492;DHT22;10404;51.468;6.762;2024-01-15T01:20:56;0.00;85.60
20492;DHT22;10404;51.468;6.762;2024-01-15T01:23:22;0.00;85.60
20492;DHT22;10404;51.468;6.762;2024-01-15T01:25:47;0.00;85.50
20492;DHT22;10404;51.468;6.762;2024-01-15T01:28:13;0.00;85.60
20492;DHT22;10404;51.468;6.762;2024-01-15T01:30:39;0.00;85.60
20492;DHT22;10404;51.468;6.762;2024-01-15T01:33:05;0.00;85.50
20492;DHT22;10404;51.468;6.762;2024-01-15T01:35:30;0.00;85.60
20492;DHT22;10404;51.468;6.762;2024-01-15T01:37:56;0.00;85.60
20492;DHT22;10404;51.468;6.762;2024-01-15T01:40:21;0.00;85.60
20492;DHT22;10404;51.468;6.762;2024-01-15T01:42:48;0.00;85.50
20492;DHT22;10404;51.468;6.762;2024-01-15T01:45:14;0.00;85.60
20492;DHT22;10404;51.468;6.762;2024-01-15T01:47:39;0.00;85.70
20492;DHT22;10404;51.468;6.762;2024-01-15T01:50:06;0.00;85.90
20492;DHT22;10404;51.468;6.762;2024-01-15T01:52:32;0.00;85.70
20492;DHT22;10404;51.468;6.762;2024-01-15T01:54:59;0.00;85.80
20492;DHT22;10404;51.468;6.762;2024-01-15T01:57:25;0.00;85.50
20492;DHT22;10404;51.468;6.762;2024-01-15T01:59:51;0.00;85.60
20492;DHT22;10404;51.468;6.762;2024-01-15T02:02:17;0.10;85.60
20492;DHT22;10404;51.468;6.762;2024-01-15T02:04:43;0.00;85.70
20492;DHT22;10404;51.468;6.762;2024-01-15T02:07:09;0.00;85.60
20492;DHT22;10404;51.468;6.762;2024-01-15T02:09:35;0.00;85.50
20492;DHT22;10404;51.468;6.762;2024-01-15T02:12:01;0.10;85.70
20492;DHT22;10404;51.468;6.762;2024-01-15T02:14:27;0.00;85.70
20492;DHT22;10404;51.468;6.762;2024-01-15T02:16:52;0.10;85.80
20492;DHT22;10404;51.468;6.762;2024-01-15T02:19:18;0.00;85.60
20492;DHT22;10404;51.468;6.762;2024-01-15T02:21:44;0.00;85.70
20492;DHT22;10404;51.468;6.762;2024-01-15T02:24:10;0.00;85.70
20492;DHT22;10404;51.468;6.762;2024-01-15T02:26:36;0.00;85.60
20492;DHT22;10404;51.468;6.762;2024-01-15T02:29:03;0.10;85.60
20492;DHT22;10404;51.468;6.762;2024-01-15T02:31:30;0.10;85.60
20492;DHT22;10404;51.468;6.762;2024-01-15T02:33:55;0.10;85.70
20492;DHT22;10404;51.468;6.762;2024-01-15T02:36:21;0.10;85.60
20492;DHT22;10404;51.468;6.762;2024-01-15T02:38:46;0.10;85.50
20492;DHT22;10404;51.468;6.762;2024-01-15T02:41:11;0.10;85.70
20492;DHT22;10404;51.468;6.762;2024-01-15T02:43:39;0.10;85.60
20492;DHT22;10404;51.468;6.762;2024-01-15T02:46:05;0.10;85.50
20492;DHT22;10404;51.468;6.762;2024-01-15T02:48:31;0.10;85.60
20492;DHT22;10404;51.468;6.762;2024-01-15T02:50:56;0.10;85.70
20492;DHT22;10404;51.468;6.762;2024-01-15T02:53:22;0.10;85.80
20492;DHT22;10404;51.468;6.762;2024-01-15T02:55:47;0.10;85.70
20492;DHT22;10404;51.468;6.762;2024-01-15T02:58:14;0.10;85.70
20492;DHT22;10404;51.468;6.762;2024-01-15T03:00:39;0.10;85.80
20492;DHT22;10404;51.468;6.762;2024-01-15T03:03:07;0.10;85.80
20492;DHT22;10404;51.468;6.762;2024-01-15T03:05:33;0.10;85.80
20492;DHT22;10404;51.468;6.762;2024-01-15T03:07:59;0.10;85.80
20492;DHT22;10404;51.468;6.762;2024-01-15T03:10:24;0.10;85.90
20492;DHT22;10404;51.468;6.762;2024-01-15T03:12:50;0.20;85.70
20492;DHT22;10404;51.468;6.762;2024-01-15T03:15:15;0.10;86.00
20492;DHT22;10404;51.468;6.762;2024-01-15T03:17:41;0.20;85.90
20492;DHT22;10404;51.468;6.762;2024-01-15T03:20:08;0.10;85.90
20492;DHT22;10404;51.468;6.762;2024-01-15T03:22:34;0.10;85.90
20492;DHT22;10404;51.468;6.762;2024-01-15T03:24:59;0.10;85.90
20492;DHT22;10404;51.468;6.762;2024-01-15T03:27:25;0.10;85.70
20492;DHT22;10404;51.468;6.762;2024-01-15T03:29:51;0.10;86.10
20492;DHT22;10404;51.468;6.762;2024-01-15T03:32:17;0.10;86.00
20492;DHT22;10404;51.468;6.762;2024-01-15T03:34:42;0.10;86.00
20492;DHT22;10404;51.468;6.762;2024-01-15T03:37:08;0.10;85.90
20492;DHT22;10404;51.468;6.762;2024-01-15T03:39:33;0.20;85.90
20492;DHT22;10404;51.468;6.762;2024-01-15T03:41:59;0.10;85.80
20492;DHT22;10404;51.468;6.762;2024-01-15T03:44:25;0.10;85.90
20492;DHT22;10404;51.468;6.762;2024-01-15T03:46:51;0.10;85.90
20492;DHT22;10404;51.468;6.762;2024-01-15T03:49:16;0.10;85.90
20492;DHT22;10404;51.468;6.762;2024-01-15T03:51:42;0.10;86.00
20492;DHT22;10404;51.468;6.762;2024-01-15T03:54:07;0.10;85.90
20492;DHT22;10404;51.468;6.762;2024-01-15T03:56:33;0.10;86.00
20492;DHT22;10404;51.468;6.762;2024-01-15T03:58:59;0.10;85.90
20492;DHT22;10404;51.468;6.762;2024-01-15T04:01:24;0.10;86.00
20492;DHT22;10404;51.468;6.762;2024-01-15T04:03:53;0.00;86.00
20492;DHT22;10404;51.468;6.762;2024-01-15T04:06:18;0.10;85.90
20492;DHT22;10404;51.468;6.762;2024-01-15T04:08:44;0.00;86.00
20492;DHT22;10404;51.468;6.762;2024-01-15T04:11:09;0.10;85.90
20492;DHT22;10404;51.468;6.762;2024-01-15T04:13:35;0.00;85.90
20492;DHT22;10404;51.468;6.762;2024-01-15T04:16:00;0.00;85.90
20492;DHT22;10404;51.468;6.762;2024-01-15T04:18:26;0.00;85.90
20492;DHT22;10404;51.468;6.762;2024-01-15T04:20:51;0.10;85.90
20492;DHT22;10404;51.468;6.762;2024-01-15T04:23:17;0.00;85.80
20492;DHT22;10404;51.468;6.762;2024-01-15T04:25:42;0.00;85.70
20492;DHT22;10404;51.468;6.762;2024-01-15T04:28:08;0.10;85.70
20492;DHT22;10404;51.468;6.762;2024-01-15T04:30:34;0.00;85.80
20492;DHT22;10404;51.468;6.762;2024-01-15T04:32:59;0.00;85.70
20492;DHT22;10404;51.468;6.762;2024-01-15T04:35:25;0.00;85.70
20492;DHT22;10404;51.468;6.762;2024-01-15T04:37:50;0.00;85.70
20492;DHT22;10404;51.468;6.762;2024-01-15T04:40:16;0.00;85.70
20492;DHT22;10404;51.468;6.762;2024-01-15T04:42:41;0.00;85.70
20492;DHT22;10404;51.468;6.762;2024-01-15T04:45:07;0.00;85.80
20492;DHT22;10404;51.468;6.762;2024-01-15T04:47:32;0.00;85.70
20492;DHT22;10404;51.468;6.762;2024-01-15T04:49:58;0.00;85.70
20492;DHT22;10404;51.468;6.762;2024-01-15T04:52:23;0.00;85.60
20492;DHT22;10404;51.468;6.762;2024-01-15T04:54:49;0.00;85.70
20492;DHT22;10404;51.468;6.762;2024-01-15T04:57:15;0.00;85.80
20492;DHT22;10404;51.468;6.762;2024-01-15T04:59:40;0.00;85.80
20492;DHT22;10404;51.468;6.762;2024-01-15T05:02:06;0.00;85.70
20492;DHT22;10404;51.468;6.762;2024-01-15T05:04:31;0.00;85.70
20492;DHT22;10404;51.468;6.762;2024-01-15T05:06:58;0.00;85.70
20492;DHT22;10404;51.468;6.762;2024-01-15T05:09:23;0.00;85.80
20492;DHT22;10404;51.468;6.762;2024-01-15T05:11:49;0.00;85.70
20492;DHT22;10404;51.468;6.762;2024-01-15T05:14:14;0.00;85.60
20492;DHT22;10404;51.468;6.762;2024-01-15T05:16:44;0.00;85.70
20492;DHT22;10404;51.468;6.762;2024-01-15T05:19:11;0.00;85.70
20492;DHT22;10404;51.468;6.762;2024-01-15T05:21:37;0.00;85.70
20492;DHT22;10404;51.468;6.762;2024-01-15T05:24:02;0.00;85.80
20492;DHT22;10404;51.468;6.762;2024-01-15T05:26:28;0.00;85.70
20492;DHT22;10404;51.468;6.762;2024-01-15T05:28:53;0.00;85.70
20492;DHT22;10404;51.468;6.762;2024-01-15T05:31:18;0.00;85.70
20492;DHT22;10404;51.468;6.762;2024-01-15T05:33:44;0.00;85.70
20492;DHT22;10404;51.468;6.762;2024-01-15T05:36:09;0.00;85.70
20492;DHT22;10404;51.468;6.762;2024-01-15T05:38:35;0.00;85.80
20492;DHT22;10404;51.468;6.762;2024-01-15T05:41:00;0.00;85.90
20492;DHT22;10404;51.468;6.762;2024-01-15T05:43:26;0.00;85.70
20492;DHT22;10404;51.468;6.762;2024-01-15T05:45:51;0.00;85.80
20492;DHT22;10404;51.468;6.762;2024-01-15T05:48:17;0.00;85.80
20492;DHT22;10404;51.468;6.762;2024-01-15T05:50:42;0.00;85.80
20492;DHT22;10404;51.468;6.762;2024-01-15T05:53:08;0.00;85.80
20492;DHT22;10404;51.468;6.762;2024-01-15T05:55:34;0.00;85.80
20492;DHT22;10404;51.468;6.762;2024-01-15T05:58:00;0.00;85.80
20492;DHT22;10404;51.468;6.762;2024-01-15T06:00:25;0.00;85.80
20492;DHT22;10404;51.468;6.762;2024-01-15T06:02:51;0.00;85.80
20492;DHT22;10404;51.468;6.762;2024-01-15T06:05:16;0.00;85.80
20492;DHT22;10404;51.468;6.762;2024-01-15T06:07:42;0.00;85.80
20492;DHT22;10404;51.468;6.762;2024-01-15T06:10:07;0.00;85.90
20492;DHT22;10404;51.468;6.762;2024-01-15T06:12:33;0.00;85.90
20492;DHT22;10404;51.468;6.762;2024-01-15T06:14:59;0.00;85.80
20492;DHT22;10404;51.468;6.762;2024-01-15T06:17:24;0.00;85.70
20492;DHT22;10404;51.468;6.762;2024-01-15T06:19:49;0.00;85.60
20492;DHT22;10404;51.468;6.762;2024-01-15T06:22:15;0.00;85.70
20492;DHT22;10404;51.468;6.762;2024-01-15T06:24:41;0.00;85.70
20492;DHT22;10404;51.468;6.762;2024-01-15T06:27:06;0.00;85.70
20492;DHT22;10404;51.468;6.762;2024-01-15T06:29:32;0.00;85.70
20492;DHT22;10404;51.468;6.762;2024-01-15T06:31:57;0.00;85.90
20492;DHT22;10404;51.468;6.762;2024-01-15T06:34:22;0.00;85.90
20492;DHT22;10404;51.468;6.762;2024-01-15T06:36:48;0.00;85.70
20492;DHT22;10404;51.468;6.762;2024-01-15T06:39:14;0.00;85.60
20492;DHT22;10404;51.468;6.762;2024-01-15T06:41:40;0.00;85.70
20492;DHT22;10404;51.468;6.762;2024-01-15T06:44:11;0.00;85.60
20492;DHT22;10404;51.468;6.762;2024-01-15T06:46:41;0.00;85.60
20492;DHT22;10404;51.468;6.762;2024-01-15T06:49:07;0.00;85.70
20492;DHT22;10404;51.468;6.762;2024-01-15T06:51:32;0.00;85.60
20492;DHT22;10404;51.468;6.762;2024-01-15T06:53:58;0.00;85.70
20492;DHT22;10404;51.468;6.762;2024-01-15T06:56:23;0.00;85.70
20492;DHT22;10404;51.468;6.762;2024-01-15T06:58:49;0.00;85.70
20492;DHT22;10404;51.468;6.762;2024-01-15T07:01:14;0.00;85.70
20492;DHT22;10404;51.468;6.762;2024-01-15T07:03:40;0.00;85.50
20492;DHT22;10404;51.468;6.762;2024-01-15T07:06:05;0.00;85.40
20492;DHT22;10404;51.468;6.762;2024-01-15T07:08:31;0.00;85.50
20492;DHT22;10404;51.468;6.762;2024-01-15T07:10:56;0.00;85.50
20492;DHT22;10404;51.468;6.762;2024-01-15T07:13:22;0.10;85.50
20492;DHT22;10404;51.468;6.762;2024-01-15T07:15:47;0.10;85.70
20492;DHT22;10404;51.468;6.762;2024-01-15T07:18:13;0.10;85.80
20492;DHT22;10404;51.468;6.762;2024-01-15T07:20:38;0.10;85.70
20492;DHT22;10404;51.468;6.762;2024-01-15T07:23:04;0.10;85.50
20492;DHT22;10404;51.468;6.762;2024-01-15T07:25:29;0.10;85.50
20492;DHT22;10404;51.468;6.762;2024-01-15T07:27:54;0.20;85.40
20492;DHT22;10404;51.468;6.762;2024-01-15T07:30:20;0.20;85.40
20492;DHT22;10404;51.468;6.762;2024-01-15T07:32:47;0.20;85.40
20492;DHT22;10404;51.468;6.762;2024-01-15T07:35:13;0.20;85.50
20492;DHT22;10404;51.468;6.762;2024-01-15T07:37:39;0.20;85.50
20492;DHT22;10404;51.468;6.762;2024-01-15T07:40:05;0.20;85.50
20492;DHT22;10404;51.468;6.762;2024-01-15T07:42:31;0.20;85.40
20492;DHT22;10404;51.468;6.762;2024-01-15T07:44:57;0.10;85.50
20492;DHT22;10404;51.468;6.762;2024-01-15T07:47:22;0.10;85.50
20492;DHT22;10404;51.468;6.762;2024-01-15T07:49:48;0.20;85.50
20492;DHT22;10404;51.468;6.762;2024-01-15T07:52:13;0.10;85.70
20492;DHT22;10404;51.468;6.762;2024-01-15T07:54:39;0.20;85.60
20492;DHT22;10404;51.468;6.762;2024-01-15T07:57:04;0.20;85.80
20492;DHT22;10404;51.468;6.762;2024-01-15T07:59:30;0.20;85.70
20492;DHT22;10404;51.468;6.762;2024-01-15T08:01:55;0.20;85.70
20492;DHT22;10404;51.468;6.762;2024-01-15T08:04:21;0.20;85.80
20492;DHT22;10404;51.468;6.762;2024-01-15T08:06:47;0.20;85.70
20492;DHT22;10404;51.468;6.762;2024-01-15T08:09:12;0.10;85.80
20492;DHT22;10404;51.468;6.762;2024-01-15T08:11:41;0.10;85.90
20492;DHT22;10404;51.468;6.762;2024-01-15T08:14:07;0.10;85.90
20492;DHT22;10404;51.468;6.762;2024-01-15T08:16:32;0.10;86.00
20492;DHT22;10404;51.468;6.762;2024-01-15T08:18:58;0.10;86.00
20492;DHT22;10404;51.468;6.762;2024-01-15T08:21:24;0.10;85.90
20492;DHT22;10404;51.468;6.762;2024-01-15T08:23:50;0.10;86.10
20492;DHT22;10404;51.468;6.762;2024-01-15T08:26:15;0.10;86.00
20492;DHT22;10404;51.468;6.762;2024-01-15T08:28:41;0.10;85.90
20492;DHT22;10404;51.468;6.762;2024-01-15T08:31:06;0.10;86.00
20492;DHT22;10404;51.468;6.762;2024-01-15T08:33:32;0.10;86.00
20492;DHT22;10404;51.468;6.762;2024-01-15T08:35:57;0.00;85.90
20492;DHT22;10404;51.468;6.762;2024-01-15T08:38:23;0.10;85.80
20492;DHT22;10404;51.468;6.762;2024-01-15T08:40:48;0.10;85.80
20492;DHT22;10404;51.468;6.762;2024-01-15T08:43:14;0.10;85.70
20492;DHT22;10404;51.468;6.762;2024-01-15T08:45:39;0.10;85.70
20492;DHT22;10404;51.468;6.762;2024-01-15T08:48:05;0.10;85.70
20492;DHT22;10404;51.468;6.762;2024-01-15T08:50:31;0.10;85.70
20492;DHT22;10404;51.468;6.762;2024-01-15T08:52:57;0.10;85.70
20492;DHT22;10404;51.468;6.762;2024-01-15T08:55:22;0.10;85.90
20492;DHT22;10404;51.468;6.762;2024-01-15T08:57:48;0.10;86.10
20492;DHT22;10404;51.468;6.762;2024-01-15T09:00:14;0.00;86.00
20492;DHT22;10404;51.468;6.762;2024-01-15T09:02:39;0.10;86.00
20492;DHT22;10404;51.468;6.762;2024-01-15T09:05:05;0.00;86.10
20492;DHT22;10404;51.468;6.762;2024-01-15T09:07:30;0.00;86.00
20492;DHT22;10404;51.468;6.762;2024-01-15T09:09:56;0.00;86.10
20492;DHT22;10404;51.468;6.762;2024-01-15T09:12:22;0.00;86.00
20492;DHT22;10404;51.468;6.762;2024-01-15T09:14:47;0.00;86.00
20492;DHT22;10404;51.468;6.762;2024-01-15T09:17:13;0.00;86.00
20492;DHT22;10404;51.468;6.762;2024-01-15T09:19:38;0.00;86.10
20492;DHT22;10404;51.468;6.762;2024-01-15T09:22:07;0.00;86.00
20492;DHT22;10404;51.468;6.762;2024-01-15T09:24:32;0.00;85.90
20492;DHT22;10404;51.468;6.762;2024-01-15T09:26:58;0.00;86.00
20492;DHT22;10404;51.468;6.762;2024-01-15T09:29:23;0.00;86.00
20492;DHT22;10404;51.468;6.762;2024-01-15T09:31:49;0.00;85.70
20492;DHT22;10404;51.468;6.762;2024-01-15T09:34:15;0.00;85.70
20492;DHT22;10404;51.468;6.762;2024-01-15T09:36:41;0.00;85.70
20492;DHT22;10404;51.468;6.762;2024-01-15T09:39:09;0.00;85.70
20492;DHT22;10404;51.468;6.762;2024-01-15T09:41:36;0.00;85.70
20492;DHT22;10404;51.468;6.762;2024-01-15T09:44:03;0.00;85.60
20492;DHT22;10404;51.468;6.762;2024-01-15T09:46:28;0.00;85.60
20492;DHT22;10404;51.468;6.762;2024-01-15T09:48:54;0.00;85.70
20492;DHT22;10404;51.468;6.762;2024-01-15T09:51:20;0.00;85.80
20492;DHT22;10404;51.468;6.762;2024-01-15T09:53:46;0.10;85.70
20492;DHT22;10404;51.468;6.762;2024-01-15T09:56:12;0.00;85.70
20492;DHT22;10404;51.468;6.762;2024-01-15T09:58:38;0.00;85.70
20492;DHT22;10404;51.468;6.762;2024-01-15T10:01:04;0.00;85.70
20492;DHT22;10404;51.468;6.762;2024-01-15T10:03:29;0.00;85.80
20492;DHT22;10404;51.468;6.762;2024-01-15T10:05:57;0.00;85.70
20492;DHT22;10404;51.468;6.762;2024-01-15T10:08:24;0.00;85.80
20492;DHT22;10404;51.468;6.762;2024-01-15T10:10:50;0.10;85.70
20492;DHT22;10404;51.468;6.762;2024-01-15T10:13:15;0.10;85.80
20492;DHT22;10404;51.468;6.762;2024-01-15T10:15:41;0.10;85.80
20492;DHT22;10404;51.468;6.762;2024-01-15T10:18:10;0.00;85.80
20492;DHT22;10404;51.468;6.762;2024-01-15T10:20:36;0.00;85.90
20492;DHT22;10404;51.468;6.762;2024-01-15T10:23:01;0.00;85.90
20492;DHT22;10404;51.468;6.762;2024-01-15T10:25:27;0.00;85.90
20492;DHT22;10404;51.468;6.762;2024-01-15T10:27:59;0.00;85.90
20492;DHT22;10404;51.468;6.762;2024-01-15T10:30:24;0.00;86.10
20492;DHT22;10404;51.468;6.762;2024-01-15T10:32:57;0.10;86.10
20492;DHT22;10404;51.468;6.762;2024-01-15T10:35:22;0.10;86.00
20492;DHT22;10404;51.468;6.762;2024-01-15T10:37:48;0.10;86.00
20492;DHT22;10404;51.468;6.762;2024-01-15T10:40:13;0.10;85.90
20492;DHT22;10404;51.468;6.762;2024-01-15T10:42:39;0.10;86.30
20492;DHT22;10404;51.468;6.762;2024-01-15T10:45:04;0.10;86.10
20492;DHT22;10404;51.468;6.762;2024-01-15T10:47:30;0.10;86.10
20492;DHT22;10404;51.468;6.762;2024-01-15T10:49:56;0.00;86.10
20492;DHT22;10404;51.468;6.762;2024-01-15T10:52:21;0.10;86.00
20492;DHT22;10404;51.468;6.762;2024-01-15T10:54:47;0.10;86.00
20492;DHT22;10404;51.468;6.762;2024-01-15T10:57:12;0.10;86.00
20492;DHT22;10404;51.468;6.762;2024-01-15T10:59:39;0.10;86.30
20492;DHT22;10404;51.468;6.762;2024-01-15T11:02:04;0.20;86.10
20492;DHT22;10404;51.468;6.762;2024-01-15T11:04:31;0.10;86.00
20492;DHT22;10404;51.468;6.762;2024-01-15T11:06:57;0.20;86.20
20492;DHT22;10404;51.468;6.762;2024-01-15T11:09:23;0.20;86.30
20492;DHT22;10404;51.468;6.762;2024-01-15T11:11:50;0.20;86.20
20492;DHT22;10404;51.468;6.762;2024-01-15T11:17:00;0.30;86.20
20492;DHT22;10404;51.468;6.762;2024-01-15T11:19:34;0.30;86.40
20492;DHT22;10404;51.468;6.762;2024-01-15T11:22:00;0.30;85.80
20492;DHT22;10404;51.468;6.762;2024-01-15T11:24:38;0.30;85.80
20492;DHT22;10404;51.468;6.762;2024-01-15T11:27:04;0.30;86.00
20492;DHT22;10404;51.468;6.762;2024-01-15T11:29:31;0.30;85.90
20492;DHT22;10404;51.468;6.762;2024-01-15T11:31:59;0.30;85.80
20492;DHT22;10404;51.468;6.762;2024-01-15T11:37:14;0.30;85.80
20492;DHT22;10404;51.468;6.762;2024-01-15T11:39:39;0.30;85.80
20492;DHT22;10404;51.468;6.762;2024-01-15T11:42:05;0.30;85.80
20492;DHT22;10404;51.468;6.762;2024-01-15T11:44:30;0.30;86.10
20492;DHT22;10404;51.468;6.762;2024-01-15T11:47:00;0.30;86.60
20492;DHT22;10404;51.468;6.762;2024-01-15T11:52:11;0.40;86.00
20492;DHT22;10404;51.468;6.762;2024-01-15T11:54:38;0.40;86.40
20492;DHT22;10404;51.468;6.762;2024-01-15T11:57:04;0.40;86.50
20492;DHT22;10404;51.468;6.762;2024-01-15T11:59:33;0.40;86.50
20492;DHT22;10404;51.468;6.762;2024-01-15T12:01:58;0.40;86.20
20492;DHT22;10404;51.468;6.762;2024-01-15T12:04:24;0.40;86.50
20492;DHT22;10404;51.468;6.762;2024-01-15T12:06:49;0.40;86.80
20492;DHT22;10404;51.468;6.762;2024-01-15T12:09:15;0.50;86.70
20492;DHT22;10404;51.468;6.762;2024-01-15T12:11:45;0.50;86.50
20492;DHT22;10404;51.468;6.762;2024-01-15T12:14:12;0.50;86.70
20492;DHT22;10404;51.468;6.762;2024-01-15T12:16:38;0.50;86.60
20492;DHT22;10404;51.468;6.762;2024-01-15T12:19:03;0.50;86.60
20492;DHT22;10404;51.468;6.762;2024-01-15T12:21:29;0.60;86.60
20492;DHT22;10404;51.468;6.762;2024-01-15T12:23:55;0.60;86.60
20492;DHT22;10404;51.468;6.762;2024-01-15T12:26:21;0.60;86.60
20492;DHT22;10404;51.468;6.762;2024-01-15T12:28:46;0.60;86.60
20492;DHT22;10404;51.468;6.762;2024-01-15T12:31:12;0.70;86.50
20492;DHT22;10404;51.468;6.762;2024-01-15T12:33:38;0.80;86.60
20492;DHT22;10404;51.468;6.762;2024-01-15T12:36:04;0.80;86.50
20492;DHT22;10404;51.468;6.762;2024-01-15T12:38:29;0.80;86.60
20492;DHT22;10404;51.468;6.762;2024-01-15T12:40:55;0.80;86.50
20492;DHT22;10404;51.468;6.762;2024-01-15T12:43:20;0.80;86.60
20492;DHT22;10404;51.468;6.762;2024-01-15T12:45:46;0.90;86.20
20492;DHT22;10404;51.468;6.762;2024-01-15T12:48:11;0.90;86.30
20492;DHT22;10404;51.468;6.762;2024-01-15T12:50:38;0.90;86.50
20492;DHT22;10404;51.468;6.762;2024-01-15T12:53:04;0.90;86.50
20492;DHT22;10404;51.468;6.762;2024-01-15T12:55:29;0.90;86.50
20492;DHT22;10404;51.468;6.762;2024-01-15T12:57:55;0.90;86.60
20492;DHT22;10404;51.468;6.762;2024-01-15T13:00:20;0.90;86.50
20492;DHT22;10404;51.468;6.762;2024-01-15T13:02:46;1.00;86.60
20492;DHT22;10404;51.468;6.762;2024-01-15T13:05:11;1.00;86.50
20492;DHT22;10404;51.468;6.762;2024-01-15T13:07:37;1.00;86.40
20492;DHT22;10404;51.468;6.762;2024-01-15T13:10:03;1.00;86.30
20492;DHT22;10404;51.468;6.762;2024-01-15T13:12:28;1.00;86.30
20492;DHT22;10404;51.468;6.762;2024-01-15T13:14:54;1.00;86.30
20492;DHT22;10404;51.468;6.762;2024-01-15T13:17:19;1.00;86.20
20492;DHT22;10404;51.468;6.762;2024-01-15T13:19:46;1.00;86.30
20492;DHT22;10404;51.468;6.762;2024-01-15T13:22:12;1.00;86.30
20492;DHT22;10404;51.468;6.762;2024-01-15T13:24:39;1.00;86.20
20492;DHT22;10404;51.468;6.762;2024-01-15T13:27:05;1.00;86.10
20492;DHT22;10404;51.468;6.762;2024-01-15T13:29:31;1.00;86.10
20492;DHT22;10404;51.468;6.762;2024-01-15T13:31:57;1.00;86.20
20492;DHT22;10404;51.468;6.762;2024-01-15T13:34:22;1.00;86.30
20492;DHT22;10404;51.468;6.762;2024-01-15T13:36:48;1.00;86.40
20492;DHT22;10404;51.468;6.762;2024-01-15T13:39:15;1.10;86.40
20492;DHT22;10404;51.468;6.762;2024-01-15T13:41:47;1.10;86.40
20492;DHT22;10404;51.468;6.762;2024-01-15T13:44:12;1.10;86.40
20492;DHT22;10404;51.468;6.762;2024-01-15T13:46:38;1.10;86.30
20492;DHT22;10404;51.468;6.762;2024-01-15T13:49:03;1.10;86.40
20492;DHT22;10404;51.468;6.762;2024-01-15T13:51:31;1.10;86.40
20492;DHT22;10404;51.468;6.762;2024-01-15T13:53:57;1.10;86.60
20492;DHT22;10404;51.468;6.762;2024-01-15T13:56:22;1.10;86.40
20492;DHT22;10404;51.468;6.762;2024-01-15T13:58:48;1.20;86.50
20492;DHT22;10404;51.468;6.762;2024-01-15T14:01:13;1.20;86.40
20492;DHT22;10404;51.468;6.762;2024-01-15T14:03:39;1.20;86.20
20492;DHT22;10404;51.468;6.762;2024-01-15T14:06:04;1.20;86.10
20492;DHT22;10404;51.468;6.762;2024-01-15T14:08:37;1.20;86.10
20492;DHT22;10404;51.468;6.762;2024-01-15T14:11:03;1.20;86.10
20492;DHT22;10404;51.468;6.762;2024-01-15T14:13:29;1.20;86.00
20492;DHT22;10404;51.468;6.762;2024-01-15T14:15:54;1.20;86.10
20492;DHT22;10404;51.468;6.762;2024-01-15T14:18:21;1.20;86.10
20492;DHT22;10404;51.468;6.762;2024-01-15T14:20:46;1.20;86.10
20492;DHT22;10404;51.468;6.762;2024-01-15T14:23:12;1.20;86.10
20492;DHT22;10404;51.468;6.762;2024-01-15T14:25:38;1.10;86.10
20492;DHT22;10404;51.468;6.762;2024-01-15T14:28:04;1.20;86.10
20492;DHT22;10404;51.468;6.762;2024-01-15T14:30:30;1.10;86.30
20492;DHT22;10404;51.468;6.762;2024-01-15T14:32:55;1.10;86.20
20492;DHT22;10404;51.468;6.762;2024-01-15T14:35:21;1.20;86.30
20492;DHT22;10404;51.468;6.762;2024-01-15T14:37:46;1.20;86.10
20492;DHT22;10404;51.468;6.762;2024-01-15T14:40:13;1.20;86.20
20492;DHT22;10404;51.468;6.762;2024-01-15T14:42:41;1.20;86.00
20492;DHT22;10404;51.468;6.762;2024-01-15T14:45:07;1.20;86.10
20492;DHT22;10404;51.468;6.762;2024-01-15T14:47:40;1.20;86.10
20492;DHT22;10404;51.468;6.762;2024-01-15T14:50:06;1.20;86.10
20492;DHT22;10404;51.468;6.762;2024-01-15T14:52:32;1.20;86.00
20492;DHT22;10404;51.468;6.762;2024-01-15T14:54:58;1.20;85.90
20492;DHT22;10404;51.468;6.762;2024-01-15T14:57:24;1.20;85.80
20492;DHT22;10404;51.468;6.762;2024-01-15T14:59:49;1.20;85.70
20492;DHT22;10404;51.468;6.762;2024-01-15T15:02:15;1.20;85.70
20492;DHT22;10404;51.468;6.762;2024-01-15T15:04:40;1.20;85.60
20492;DHT22;10404;51.468;6.762;2024-01-15T15:07:07;1.20;85.60
20492;DHT22;10404;51.468;6.762;2024-01-15T15:09:32;1.10;85.50
20492;DHT22;10404;51.468;6.762;2024-01-15T15:11:58;1.10;85.30
20492;DHT22;10404;51.468;6.762;2024-01-15T15:14:23;1.10;85.30
20492;DHT22;10404;51.468;6.762;2024-01-15T15:16:49;1.10;85.30
20492;DHT22;10404;51.468;6.762;2024-01-15T15:19:14;1.10;85.30
20492;DHT22;10404;51.468;6.762;2024-01-15T15:21:40;1.10;85.20
20492;DHT22;10404;51.468;6.762;2024-01-15T15:24:05;1.10;85.30
20492;DHT22;10404;51.468;6.762;2024-01-15T15:26:31;1.10;85.50
20492;DHT22;10404;51.468;6.762;2024-01-15T15:28:56;1.10;85.50
20492;DHT22;10404;51.468;6.762;2024-01-15T15:31:22;1.00;85.40
20492;DHT22;10404;51.468;6.762;2024-01-15T15:33:47;1.10;85.50
20492;DHT22;10404;51.468;6.762;2024-01-15T15:36:13;1.00;85.50
20492;DHT22;10404;51.468;6.762;2024-01-15T15:38:38;1.00;85.50
20492;DHT22;10404;51.468;6.762;2024-01-15T15:41:03;1.00;85.50
20492;DHT22;10404;51.468;6.762;2024-01-15T15:43:29;1.00;85.50